Time;durP1;ratioP1;P1;durP2;ratioP2;P2;SDS_P1;SDS_P2;PMS_P1;PMS_P2;Temp;Humidity;BMP_temperature;BMP_pressure;BME280_temperature;BME280_humidity;BME280_pressure;Samples;Min_cycle;Max_cycle;Signal;HPM_P1;HPM_P2
2022/03/13 00:00:48;;;;;;;2.78;2.03;;;;;;;-148.56;100.00;61375.16;5045644;28;20028;-28
2022/03/13 00:03:14;;;;;;;4.00;2.10;;;;;;;-148.56;100.00;61375.16;5045750;28;20025;-28
2022/03/13 00:05:41;;;;;;;2.97;2.10;;;;;;;-148.56;100.00;61375.16;5040614;28;20141;-30
2022/03/13 00:08:27;;;;;;;2.53;2.05;;;;;;;-148.56;100.00;61375.16;5044042;28;20075;-29
2022/03/13 00:10:57;;;;;;;3.28;2.00;;;;;;;-148.56;100.00;61375.16;5040451;28;20535;-29
2022/03/13 00:13:30;;;;;;;3.35;2.08;;;;;;;-148.56;100.00;61375.16;5043230;28;20028;-28
2022/03/13 00:15:56;;;;;;;2.47;1.85;;;;;;;-148.56;100.00;61375.16;5039866;28;20040;-29
2022/03/13 00:18:22;;;;;;;2.33;1.90;;;;;;;-148.56;100.00;61375.16;5041522;28;20025;-31
2022/03/13 00:20:48;;;;;;;3.53;2.20;;;;;;;-148.56;100.00;61375.16;5038430;28;20035;-29
2022/03/13 00:23:13;;;;;;;2.28;2.05;;;;;;;-148.56;100.00;61375.16;5041644;28;20028;-30
2022/03/13 00:25:39;;;;;;;4.82;1.98;;;;;;;-148.56;100.00;61375.16;5043280;28;20020;-29
2022/03/13 00:28:05;;;;;;;4.63;1.95;;;;;;;-148.56;100.00;61375.16;5045314;28;20695;-28
2022/03/13 00:30:30;;;;;;;2.42;1.70;;;;;;;-148.56;100.00;61375.16;5044260;28;20024;-29
2022/03/13 00:32:56;;;;;;;2.50;1.88;;;;;;;-148.56;100.00;61375.16;5036566;28;20619;-28
2022/03/13 00:35:21;;;;;;;4.43;1.70;;;;;;;-148.56;100.00;61375.16;5046350;28;20047;-28
2022/03/13 00:37:47;;;;;;;4.03;1.95;;;;;;;-148.56;100.00;61375.16;5046573;28;20071;-27
2022/03/13 00:40:13;;;;;;;3.35;1.92;;;;;;;-148.56;100.00;61375.16;5040558;28;20044;-27
2022/03/13 00:42:38;;;;;;;3.47;1.95;;;;;;;-148.56;100.00;61375.16;5042700;28;20024;-29
2022/03/13 00:45:05;;;;;;;2.28;2.03;;;;;;;-148.56;100.00;61375.16;5039581;28;20522;-27
2022/03/13 00:47:30;;;;;;;2.67;2.05;;;;;;;-148.56;100.00;61375.16;5040234;28;20029;-28
2022/03/13 00:49:55;;;;;;;2.15;1.70;;;;;;;-148.56;100.00;61375.16;5039890;28;20491;-30
2022/03/13 00:52:21;;;;;;;3.03;2.08;;;;;;;-148.56;100.00;61375.16;5036524;28;20040;-27
2022/03/13 00:54:46;;;;;;;4.03;1.92;;;;;;;-148.56;100.00;61375.16;5040182;28;20032;-28
2022/03/13 00:57:12;;;;;;;1.90;1.70;;;;;;;-148.56;100.00;61375.16;5037793;28;20059;-27
2022/03/13 00:59:37;;;;;;;3.28;2.00;;;;;;;-148.56;100.00;61375.16;5038312;28;20046;-26
2022/03/13 01:02:03;;;;;;;2.85;2.00;;;;;;;-148.56;100.00;61375.16;5037856;28;20024;-27
2022/03/13 01:04:28;;;;;;;2.40;1.90;;;;;;;-148.56;100.00;61375.16;5040595;28;20146;-31
2022/03/13 01:06:53;;;;;;;4.30;1.85;;;;;;;-148.56;100.00;61375.16;5040291;28;20017;-24
2022/03/13 01:09:19;;;;;;;4.03;2.10;;;;;;;-148.56;100.00;61375.16;5040692;28;20099;-27
2022/03/13 01:11:44;;;;;;;4.47;1.90;;;;;;;-148.56;100.00;61375.16;5036576;28;20487;-28
2022/03/13 01:14:10;;;;;;;5.45;2.30;;;;;;;-148.56;100.00;61375.16;5041499;28;20123;-28
2022/03/13 01:16:38;;;;;;;2.95;2.00;;;;;;;-148.56;100.00;61375.16;5037747;28;20989;-29
2022/03/13 01:19:03;;;;;;;2.53;2.10;;;;;;;-148.56;100.00;61375.16;5037243;28;20051;-29
2022/03/13 01:21:30;;;;;;;2.80;1.73;;;;;;;-148.56;100.00;61375.16;5040552;28;20040;-28
2022/03/13 01:23:55;;;;;;;2.08;1.80;;;;;;;-148.56;100.00;61375.16;5039199;28;20136;-27
2022/03/13 01:26:24;;;;;;;3.17;1.67;;;;;;;-148.56;100.00;61375.16;5036538;28;21325;-29
2022/03/13 01:28:53;;;;;;;2.63;1.88;;;;;;;-148.56;100.00;61375.16;5045233;28;20089;-29
2022/03/13 01:31:21;;;;;;;3.28;1.65;;;;;;;-148.56;100.00;61375.16;5047995;28;20081;-28
2022/03/13 01:33:46;;;;;;;1.88;1.70;;;;;;;-148.56;100.00;61375.16;5045120;28;20095;-33
2022/03/13 01:36:12;;;;;;;3.40;2.20;;;;;;;-148.56;100.00;61375.16;5045242;28;20481;-31
2022/03/13 01:38:37;;;;;;;2.13;1.80;;;;;;;-148.56;100.00;61375.16;5033824;28;20549;-29
2022/03/13 01:41:03;;;;;;;2.20;1.75;;;;;;;-148.56;100.00;61375.16;5037904;28;20048;-32
2022/03/13 01:43:31;;;;;;;2.33;1.90;;;;;;;-148.56;100.00;61375.16;5041064;28;20028;-29
2022/03/13 01:45:58;;;;;;;2.53;1.77;;;;;;;-148.56;100.00;61375.16;5042581;28;20117;-25
2022/03/13 01:48:24;;;;;;;2.67;1.75;;;;;;;-148.56;100.00;61375.16;5048485;28;20029;-26
2022/03/13 01:50:49;;;;;;;2.90;1.70;;;;;;;-148.56;100.00;61375.16;5053721;28;20126;-30
2022/03/13 01:53:15;;;;;;;4.32;1.90;;;;;;;-148.56;100.00;61375.16;5055940;28;20058;-29
2022/03/13 01:55:40;;;;;;;2.67;1.80;;;;;;;-148.56;100.00;61375.16;5054349;28;20762;-32
2022/03/13 01:58:06;;;;;;;3.35;1.80;;;;;;;-148.56;100.00;61375.16;5048070;28;20036;-25
2022/03/13 02:00:32;;;;;;;3.00;2.10;;;;;;;-148.56;100.00;61375.16;5054034;28;20036;-28
2022/03/13 02:02:58;;;;;;;2.80;1.95;;;;;;;-148.56;100.00;61375.16;5053678;28;20089;-32
2022/03/13 02:05:30;;;;;;;3.85;2.10;;;;;;;-148.56;100.00;61375.16;5054195;28;20522;-31
2022/03/13 02:07:56;;;;;;;3.70;2.08;;;;;;;-148.56;100.00;61375.16;5053656;28;20031;-26
2022/03/13 02:10:22;;;;;;;2.35;2.00;;;;;;;-148.56;100.00;61375.16;5052068;28;20028;-32
2022/03/13 02:12:47;;;;;;;4.63;2.10;;;;;;;-148.56;100.00;61375.16;5053061;28;20115;-27
2022/03/13 02:15:12;;;;;;;3.17;2.10;;;;;;;-148.56;100.00;61375.16;5055009;28;20082;-27
2022/03/13 02:17:38;;;;;;;3.30;2.10;;;;;;;-148.56;100.00;61375.16;5058868;28;20505;-29
2022/03/13 02:20:03;;;;;;;2.90;2.13;;;;;;;-148.56;100.00;61375.16;5049332;28;20085;-28
2022/03/13 02:22:29;;;;;;;3.20;2.20;;;;;;;-148.56;100.00;61375.16;5047318;28;20028;-29
2022/03/13 02:24:55;;;;;;;2.60;1.95;;;;;;;-148.56;100.00;61375.16;5044781;28;20024;-32
2022/03/13 02:27:22;;;;;;;2.75;2.00;;;;;;;-148.56;100.00;61375.16;5043040;28;20020;-30
2022/03/13 02:29:48;;;;;;;2.47;1.80;;;;;;;-148.56;100.00;61375.16;5043910;28;20025;-30
2022/03/13 02:32:13;;;;;;;1.88;1.70;;;;;;;-148.56;100.00;61375.16;5042971;28;20072;-31
2022/03/13 02:34:39;;;;;;;2.08;1.65;;;;;;;-148.56;100.00;61375.16;5043681;28;20029;-28
2022/03/13 02:37:04;;;;;;;5.50;1.90;;;;;;;-148.56;100.00;61375.16;5044264;28;20103;-32
2022/03/13 02:39:35;;;;;;;11.13;2.00;;;;;;;-148.56;100.00;61375.16;5046367;28;20028;-25
2022/03/13 02:42:02;;;;;;;2.20;1.88;;;;;;;-148.56;100.00;61375.16;5043814;28;20465;-26
2022/03/13 02:44:27;;;;;;;3.17;1.92;;;;;;;-148.56;100.00;61375.16;5042908;28;20037;-27
2022/03/13 02:47:00;;;;;;;3.20;2.17;;;;;;;-148.56;100.00;61375.16;5042003;28;20035;-31
2022/03/13 02:49:27;;;;;;;3.33;2.10;;;;;;;-148.56;100.00;61375.16;5045640;28;20028;-30
2022/03/13 02:51:53;;;;;;;1.98;1.73;;;;;;;-148.56;100.00;61375.16;5045263;28;20027;-28
2022/03/13 02:54:19;;;;;;;2.33;1.73;;;;;;;-148.56;100.00;61375.16;5046380;28;20518;-29
2022/03/13 02:56:45;;;;;;;2.63;1.80;;;;;;;-148.56;100.00;61375.16;5045026;28;20028;-29
2022/03/13 02:59:12;;;;;;;2.15;1.70;;;;;;;-148.56;100.00;61375.16;5047826;28;20040;-31
2022/03/13 03:01:37;;;;;;;3.58;1.90;;;;;;;-148.56;100.00;61375.16;5039270;28;20040;-30
2022/03/13 03:04:03;;;;;;;4.10;2.15;;;;;;;-148.56;100.00;61375.16;5043374;28;20064;-33
2022/03/13 03:06:29;;;;;;;3.45;2.10;;;;;;;-148.56;100.00;61375.16;5053543;28;20032;-31
2022/03/13 03:08:55;;;;;;;1.85;1.70;;;;;;;-148.56;100.00;61375.16;5042959;28;20032;-32
2022/03/13 03:11:21;;;;;;;3.45;2.05;;;;;;;-148.56;100.00;61375.16;5046315;28;20032;-27
2022/03/13 03:13:46;;;;;;;2.83;1.42;;;;;;;-148.56;100.00;61375.16;5041872;28;20047;-33
2022/03/13 03:16:12;;;;;;;3.08;1.90;;;;;;;-148.56;100.00;61375.16;5041080;28;20040;-30
2022/03/13 03:18:37;;;;;;;2.70;1.90;;;;;;;-148.56;100.00;61375.16;5041295;28;20037;-27
2022/03/13 03:21:02;;;;;;;2.42;1.85;;;;;;;-148.56;100.00;61375.16;5042613;28;20037;-30
2022/03/13 03:23:28;;;;;;;2.83;1.80;;;;;;;-148.56;100.00;61375.16;5043655;28;20028;-31
2022/03/13 03:25:53;;;;;;;3.33;1.73;;;;;;;-148.56;100.00;61375.16;5043642;28;20029;-27
2022/03/13 03:28:19;;;;;;;3.45;1.92;;;;;;;-148.56;100.00;61375.16;5044877;28;21162;-29
2022/03/13 03:30:44;;;;;;;1.92;1.75;;;;;;;-148.56;100.00;61375.16;5048551;28;20033;-29
2022/03/13 03:33:10;;;;;;;1.98;1.40;;;;;;;-148.56;100.00;61375.16;5049009;28;20621;-32
2022/03/13 03:35:35;;;;;;;1.85;1.65;;;;;;;-148.56;100.00;61375.16;5039877;28;20028;-27
2022/03/13 03:38:01;;;;;;;2.78;1.80;;;;;;;-148.56;100.00;61375.16;5044118;28;20036;-28
2022/03/13 03:40:30;;;;;;;2.42;1.73;;;;;;;-148.56;100.00;61375.16;5040741;28;20032;-29
2022/03/13 03:43:00;;;;;;;3.88;1.73;;;;;;;-148.56;100.00;61375.16;5042255;28;20035;-30
2022/03/13 03:45:25;;;;;;;4.07;1.90;;;;;;;-148.56;100.00;61375.16;5044513;28;20031;-29
2022/03/13 03:47:51;;;;;;;1.83;1.65;;;;;;;-148.56;100.00;61375.16;5041910;28;20032;-31
2022/03/13 03:50:16;;;;;;;2.20;1.77;;;;;;;-148.56;100.00;61375.16;5041177;28;20154;-27
2022/03/13 03:52:42;;;;;;;2.50;1.70;;;;;;;-148.56;100.00;61375.16;5040632;28;20592;-30
2022/03/13 03:55:07;;;;;;;1.98;1.67;;;;;;;-148.56;100.00;61375.16;5041744;28;20037;-28
2022/03/13 03:57:33;;;;;;;1.90;1.42;;;;;;;-148.56;100.00;61375.16;5044834;28;20032;-28
2022/03/13 03:59:58;;;;;;;16.88;4.20;;;;;;;-148.56;100.00;61375.16;5044061;28;20119;-31
2022/03/13 04:02:24;;;;;;;4.78;1.90;;;;;;;-148.56;100.00;61375.16;5042876;28;20040;-32
2022/03/13 04:04:49;;;;;;;3.63;2.00;;;;;;;-148.56;100.00;61375.16;5038795;28;20102;-27
2022/03/13 04:07:15;;;;;;;2.80;1.90;;;;;;;-148.56;100.00;61375.16;5039322;28;20909;-31
2022/03/13 04:09:41;;;;;;;3.15;1.90;;;;;;;-148.56;100.00;61375.16;5043779;28;21142;-29
2022/03/13 04:12:08;;;;;;;4.60;2.10;;;;;;;-148.56;100.00;61375.16;5042133;28;20024;-29
2022/03/13 04:14:36;;;;;;;2.08;1.70;;;;;;;-148.56;100.00;61375.16;5044215;28;20032;-27
2022/03/13 04:17:03;;;;;;;3.30;1.67;;;;;;;-148.56;100.00;61375.16;5047447;28;20032;-30
2022/03/13 04:19:28;;;;;;;3.10;2.10;;;;;;;-148.56;100.00;61375.16;5041079;28;21056;-30
2022/03/13 04:21:55;;;;;;;2.53;1.60;;;;;;;-148.56;100.00;61375.16;5038679;28;20032;-29
2022/03/13 04:24:21;;;;;;;3.45;1.75;;;;;;;-148.56;100.00;61375.16;5038849;28;20033;-25
2022/03/13 04:26:48;;;;;;;2.92;1.92;;;;;;;-148.56;100.00;61375.16;5039596;28;20020;-28
2022/03/13 04:29:14;;;;;;;2.50;1.65;;;;;;;-148.56;100.00;61375.16;5043758;28;20147;-29
2022/03/13 04:31:40;;;;;;;3.05;1.80;;;;;;;-148.56;100.00;61375.16;5042452;28;20093;-28
2022/03/13 04:34:05;;;;;;;2.50;1.70;;;;;;;-148.56;100.00;61375.16;5041106;28;20024;-30
2022/03/13 04:36:35;;;;;;;1.88;1.50;;;;;;;-148.56;100.00;61375.16;5041631;28;20031;-30
2022/03/13 04:39:01;;;;;;;2.05;1.67;;;;;;;-148.56;100.00;61375.16;5039909;28;20101;-29
2022/03/13 04:41:26;;;;;;;2.78;1.77;;;;;;;-148.56;100.00;61375.16;5038043;28;20753;-31
2022/03/13 04:43:53;;;;;;;2.95;2.00;;;;;;;-148.56;100.00;61375.16;5038112;28;20123;-29
2022/03/13 04:46:18;;;;;;;2.63;1.85;;;;;;;-148.56;100.00;61375.16;5036846;28;20535;-29
2022/03/13 04:48:43;;;;;;;2.03;1.67;;;;;;;-148.56;100.00;61375.16;5038324;28;20031;-34
2022/03/13 04:51:09;;;;;;;2.03;1.70;;;;;;;-148.56;100.00;61375.16;5040562;28;20035;-27
2022/03/13 04:53:34;;;;;;;2.70;1.75;;;;;;;-148.56;100.00;61375.16;5042296;28;20028;-29
2022/03/13 04:56:00;;;;;;;2.08;1.80;;;;;;;-148.56;100.00;61375.16;5044571;28;20043;-28
2022/03/13 04:58:25;;;;;;;2.10;1.67;;;;;;;-148.56;100.00;61375.16;5045458;28;20032;-29
2022/03/13 05:00:51;;;;;;;3.33;1.40;;;;;;;-148.56;100.00;61375.16;5041444;28;20739;-26
2022/03/13 05:03:17;;;;;;;2.20;1.70;;;;;;;-148.56;100.00;61375.16;5047450;28;20036;-30
2022/03/13 05:05:42;;;;;;;5.57;1.70;;;;;;;-148.56;100.00;61375.16;5046920;28;20037;-31
2022/03/13 05:08:13;;;;;;;2.10;1.67;;;;;;;-148.56;100.00;61375.16;5046078;28;20630;-29
2022/03/13 05:10:39;;;;;;;6.80;1.75;;;;;;;-148.56;100.00;61375.16;5043035;28;20039;-32
2022/03/13 05:13:06;;;;;;;2.08;1.65;;;;;;;-148.56;100.00;61375.16;5037897;28;20039;-29
2022/03/13 05:15:32;;;;;;;2.33;1.70;;;;;;;-148.56;100.00;61375.16;5036829;28;20058;-29
2022/03/13 05:17:57;;;;;;;2.13;1.90;;;;;;;-148.56;100.00;61375.16;5045685;28;20040;-31
2022/03/13 05:20:26;;;;;;;1.70;1.60;;;;;;;-148.56;100.00;61375.16;5049878;28;20041;-31
2022/03/13 05:22:51;;;;;;;2.03;1.80;;;;;;;-148.56;100.00;61375.16;5050329;28;20029;-30
2022/03/13 05:25:17;;;;;;;2.47;1.80;;;;;;;-148.56;100.00;61375.16;5057083;28;20024;-32
2022/03/13 05:27:43;;;;;;;2.65;1.83;;;;;;;-148.56;100.00;61375.16;5056248;28;20056;-27
2022/03/13 05:30:09;;;;;;;1.80;1.50;;;;;;;-148.56;100.00;61375.16;5055423;28;20040;-28
2022/03/13 05:32:35;;;;;;;1.58;1.45;;;;;;;-148.56;100.00;61375.16;5057503;28;20032;-27
2022/03/13 05:35:01;;;;;;;2.00;1.80;;;;;;;-148.56;100.00;61375.16;5057908;28;20024;-29
2022/03/13 05:37:27;;;;;;;2.15;1.85;;;;;;;-148.56;100.00;61375.16;5055024;28;20037;-28
2022/03/13 05:39:52;;;;;;;1.67;1.52;;;;;;;-148.56;100.00;61375.16;5055730;28;20062;-30
2022/03/13 05:42:19;;;;;;;2.42;1.60;;;;;;;-148.56;100.00;61375.16;5057425;28;20903;-29
2022/03/13 05:44:44;;;;;;;2.08;1.45;;;;;;;-148.56;100.00;61375.16;5056505;28;20406;-30
2022/03/13 05:47:10;;;;;;;1.70;1.60;;;;;;;-148.56;100.00;61375.16;5053355;28;20029;-28
2022/03/13 05:49:35;;;;;;;1.50;1.40;;;;;;;-148.56;100.00;61375.16;5045377;28;20044;-26
2022/03/13 05:52:01;;;;;;;1.60;1.27;;;;;;;-148.56;100.00;61375.16;5044611;28;20032;-30
2022/03/13 05:54:27;;;;;;;2.70;1.40;;;;;;;-148.56;100.00;61375.16;5045078;28;20744;-28
2022/03/13 05:56:52;;;;;;;1.48;1.38;;;;;;;-148.56;100.00;61375.16;5046111;28;20426;-29
2022/03/13 05:59:18;;;;;;;1.38;1.27;;;;;;;-148.56;100.00;61375.16;5044567;28;20025;-26
2022/03/13 06:01:43;;;;;;;1.65;1.40;;;;;;;-148.56;100.00;61375.16;5046211;28;20043;-30
2022/03/13 06:04:08;;;;;;;2.40;1.70;;;;;;;-148.56;100.00;61375.16;5047135;28;20039;-32
2022/03/13 06:06:34;;;;;;;1.42;1.30;;;;;;;-148.56;100.00;61375.16;5045398;28;20641;-30
2022/03/13 06:09:00;;;;;;;1.83;1.45;;;;;;;-148.56;100.00;61375.16;5061686;28;20047;-28
2022/03/13 06:11:25;;;;;;;1.35;1.25;;;;;;;-148.56;100.00;61375.16;5046861;28;20037;-31
2022/03/13 06:13:50;;;;;;;1.58;1.40;;;;;;;-148.56;100.00;61375.16;5048455;28;20024;-32
2022/03/13 06:16:16;;;;;;;1.85;1.48;;;;;;;-148.56;100.00;61375.16;5047292;28;20418;-32
2022/03/13 06:18:42;;;;;;;2.05;1.65;;;;;;;-148.56;100.00;61375.16;5046696;28;20036;-30
2022/03/13 06:21:07;;;;;;;1.88;1.55;;;;;;;-148.56;100.00;61375.16;5046835;28;20025;-30
2022/03/13 06:23:33;;;;;;;1.30;1.20;;;;;;;-148.56;100.00;61375.16;5051414;28;20492;-29
2022/03/13 06:26:00;;;;;;;2.17;1.42;;;;;;;-148.56;100.00;61375.16;5048549;28;20610;-26
2022/03/13 06:28:26;;;;;;;1.70;1.50;;;;;;;-148.56;100.00;61375.16;5052029;28;20036;-29
2022/03/13 06:30:52;;;;;;;1.50;1.40;;;;;;;-148.56;100.00;61375.16;5052411;28;20151;-29
2022/03/13 06:33:17;;;;;;;2.35;1.65;;;;;;;-148.56;100.00;61375.16;5052429;28;20532;-30
2022/03/13 06:35:43;;;;;;;1.40;1.30;;;;;;;-148.56;100.00;61375.16;5052736;28;20035;-32
2022/03/13 06:38:08;;;;;;;1.55;1.45;;;;;;;-148.56;100.00;61375.16;5047141;28;20036;-28
2022/03/13 06:40:34;;;;;;;1.80;1.50;;;;;;;-148.56;100.00;61375.16;5042127;28;20036;-30
2022/03/13 06:43:00;;;;;;;1.67;1.45;;;;;;;-148.56;100.00;61375.16;5043859;28;20024;-32
2022/03/13 06:45:25;;;;;;;1.40;1.30;;;;;;;-148.56;100.00;61375.16;5042502;28;20028;-29
2022/03/13 06:47:52;;;;;;;2.53;1.65;;;;;;;-148.56;100.00;61375.16;5042503;28;20739;-30
2022/03/13 06:50:18;;;;;;;2.90;1.75;;;;;;;-148.56;100.00;61375.16;5043755;28;20554;-31
2022/03/13 06:52:47;;;;;;;1.85;1.55;;;;;;;-148.56;100.00;61375.16;5043376;28;20039;-32
2022/03/13 06:55:13;;;;;;;1.70;1.40;;;;;;;-148.56;100.00;61375.16;5045823;28;20332;-28
2022/03/13 06:57:40;;;;;;;1.50;1.40;;;;;;;-148.56;100.00;61375.16;5042895;28;20024;-32
2022/03/13 07:00:06;;;;;;;4.38;1.73;;;;;;;-148.56;100.00;61375.16;5043174;28;20073;-31
2022/03/13 07:02:31;;;;;;;1.73;1.63;;;;;;;-148.56;100.00;61375.16;5042817;28;20024;-29
2022/03/13 07:04:57;;;;;;;1.77;1.40;;;;;;;-148.56;100.00;61375.16;5047912;28;20035;-29
2022/03/13 07:07:22;;;;;;;1.95;1.50;;;;;;;-148.56;100.00;61375.16;5041915;28;20036;-28
2022/03/13 07:09:49;;;;;;;1.60;1.30;;;;;;;-148.56;100.00;61375.16;5046455;28;20680;-30
2022/03/13 07:12:14;;;;;;;3.33;1.58;;;;;;;-148.56;100.00;61375.16;5043747;28;20040;-25
2022/03/13 07:14:44;;;;;;;2.05;1.42;;;;;;;-148.56;100.00;61375.16;5041500;28;20035;-33
2022/03/13 07:17:09;;;;;;;2.08;1.60;;;;;;;-148.56;100.00;61375.16;5041054;28;20106;-31
2022/03/13 07:19:35;;;;;;;3.25;1.52;;;;;;;-148.56;100.00;61375.16;5045739;28;20032;-26
2022/03/13 07:22:00;;;;;;;1.95;1.50;;;;;;;-148.56;100.00;61375.16;5044643;28;20024;-30
2022/03/13 07:24:25;;;;;;;1.70;1.58;;;;;;;-148.56;100.00;61375.16;5044760;28;20757;-33
2022/03/13 07:26:51;;;;;;;1.77;1.40;;;;;;;-148.56;100.00;61375.16;5044821;28;20032;-30
2022/03/13 07:29:16;;;;;;;2.13;1.83;;;;;;;-148.56;100.00;61375.16;5043394;28;20024;-30
2022/03/13 07:31:41;;;;;;;3.13;2.30;;;;;;;-148.56;100.00;61375.16;5051700;28;20066;-29
2022/03/13 07:34:07;;;;;;;6.05;2.17;;;;;;;-148.56;100.00;61375.16;5054233;28;20534;-32
2022/03/13 07:36:34;;;;;;;2.78;1.98;;;;;;;-148.56;100.00;61375.16;5048988;28;20470;-30
2022/03/13 07:39:00;;;;;;;6.57;2.20;;;;;;;-148.56;100.00;61375.16;5053213;28;20033;-30
2022/03/13 07:41:26;;;;;;;3.25;2.10;;;;;;;-148.56;100.00;61375.16;5048147;28;20044;-28
2022/03/13 07:43:51;;;;;;;15.30;5.30;;;;;;;-148.56;100.00;61375.16;5044261;28;20037;-28
2022/03/13 07:46:17;;;;;;;5.68;2.70;;;;;;;-148.56;100.00;61375.16;5040060;28;20632;-29
2022/03/13 07:48:44;;;;;;;3.95;2.30;;;;;;;-148.56;100.00;61375.16;5044111;28;20044;-32
2022/03/13 07:51:11;;;;;;;8.43;2.22;;;;;;;-148.56;100.00;61375.16;5038874;28;20024;-28
2022/03/13 07:53:36;;;;;;;4.63;2.25;;;;;;;-148.56;100.00;61375.16;5042469;28;20036;-30
2022/03/13 07:56:02;;;;;;;3.33;2.05;;;;;;;-148.56;100.00;61375.16;5040885;28;20032;-29
2022/03/13 07:58:28;;;;;;;3.67;2.20;;;;;;;-148.56;100.00;61375.16;5051605;28;20616;-29
2022/03/13 08:00:53;;;;;;;7.78;2.50;;;;;;;-148.56;100.00;61375.16;5048620;28;20098;-29
2022/03/13 08:03:19;;;;;;;3.22;2.28;;;;;;;-148.56;100.00;61375.16;5048945;28;20038;-26
2022/03/13 08:05:45;;;;;;;2.78;1.98;;;;;;;-148.56;100.00;61375.16;5042457;28;20044;-28
2022/03/13 08:08:10;;;;;;;4.95;2.30;;;;;;;-148.56;100.00;61375.16;5044711;28;20529;-26
2022/03/13 08:10:36;;;;;;;3.53;2.38;;;;;;;-148.56;100.00;61375.16;5045151;28;20052;-27
2022/03/13 08:13:01;;;;;;;3.13;2.30;;;;;;;-148.56;100.00;61375.16;5046004;28;20058;-28
2022/03/13 08:15:27;;;;;;;4.25;2.40;;;;;;;-148.56;100.00;61375.16;5045829;28;20074;-28
2022/03/13 08:17:52;;;;;;;4.85;2.28;;;;;;;-148.56;100.00;61375.16;5045781;28;20024;-26
2022/03/13 08:20:18;;;;;;;3.97;2.30;;;;;;;-148.56;100.00;61375.16;5045267;28;20093;-26
2022/03/13 08:22:43;;;;;;;4.40;2.13;;;;;;;-148.56;100.00;61375.16;5050228;28;20038;-27
2022/03/13 08:25:10;;;;;;;4.40;2.20;;;;;;;-148.56;100.00;61375.16;5046908;28;20037;-31
2022/03/13 08:27:36;;;;;;;2.83;2.22;;;;;;;-148.56;100.00;61375.16;5042726;28;20031;-31
2022/03/13 08:30:02;;;;;;;4.20;2.20;;;;;;;-148.56;100.00;61375.16;5025267;28;20032;-33
2022/03/13 08:32:28;;;;;;;4.07;2.47;;;;;;;-148.56;100.00;61375.16;5025350;28;20395;-25
2022/03/13 08:34:53;;;;;;;6.05;2.85;;;;;;;-148.56;100.00;61375.16;5028178;28;20114;-31
2022/03/13 08:37:19;;;;;;;3.55;2.50;;;;;;;-148.56;100.00;61375.16;5029675;28;20578;-30
2022/03/13 08:39:44;;;;;;;3.50;2.15;;;;;;;-148.56;100.00;61375.16;5028600;28;20084;-30
2022/03/13 08:42:09;;;;;;;3.95;2.60;;;;;;;-148.56;100.00;61375.16;5031208;28;20024;-26
2022/03/13 08:44:35;;;;;;;3.60;2.10;;;;;;;-148.56;100.00;61375.16;5024916;28;20036;-30
2022/03/13 08:47:00;;;;;;;3.03;2.08;;;;;;;-148.56;100.00;61375.16;5030344;28;20151;-30
2022/03/13 08:49:26;;;;;;;3.38;2.20;;;;;;;-148.56;100.00;61375.16;5042000;28;20032;-26
2022/03/13 08:51:51;;;;;;;3.10;2.00;;;;;;;-148.56;100.00;61375.16;5044621;28;20060;-31
2022/03/13 08:54:17;;;;;;;2.85;2.15;;;;;;;-148.56;100.00;61375.16;5042139;28;20118;-29
2022/03/13 08:56:43;;;;;;;3.45;2.38;;;;;;;-148.56;100.00;61375.16;5040774;28;20037;-28
2022/03/13 08:59:09;;;;;;;4.43;2.55;;;;;;;-148.56;100.00;61375.16;5044316;28;20048;-30
2022/03/13 09:01:34;;;;;;;3.28;2.30;;;;;;;-148.56;100.00;61375.16;5041554;28;20066;-27
2022/03/13 09:04:00;;;;;;;3.03;1.95;;;;;;;-148.56;100.00;61375.16;5044644;28;20024;-31
2022/03/13 09:06:25;;;;;;;4.20;2.03;;;;;;;-148.56;100.00;61375.16;5044516;28;20031;-32
2022/03/13 09:08:51;;;;;;;3.72;2.42;;;;;;;-148.56;100.00;61375.16;5049706;28;20050;-29
2022/03/13 09:11:17;;;;;;;5.88;1.95;;;;;;;-148.56;100.00;61375.16;5053096;28;20681;-30
2022/03/13 09:13:42;;;;;;;2.47;2.08;;;;;;;-148.56;100.00;61375.16;5051539;28;20094;-30
2022/03/13 09:16:08;;;;;;;21.77;13.80;;;;;;;-148.56;100.00;61375.16;5047733;28;20028;-30
2022/03/13 09:18:34;;;;;;;17.15;14.38;;;;;;;-148.56;100.00;61375.16;5056283;28;20033;-28
2022/03/13 09:20:59;;;;;;;18.88;15.88;;;;;;;-148.56;100.00;61375.16;5053097;28;20039;-31
2022/03/13 09:23:25;;;;;;;22.55;16.13;;;;;;;-148.56;100.00;61375.16;5056560;28;20020;-28
2022/03/13 09:25:52;;;;;;;18.92;16.25;;;;;;;-148.56;100.00;61375.16;5057173;28;20032;-29
2022/03/13 09:28:18;;;;;;;26.40;16.20;;;;;;;-148.56;100.00;61375.16;5052906;28;20033;-32
2022/03/13 09:30:43;;;;;;;18.88;13.70;;;;;;;-148.56;100.00;61375.16;5055651;28;20036;-28
2022/03/13 09:33:12;;;;;;;22.27;11.82;;;;;;;-148.56;100.00;61375.16;5055432;28;20060;-29
2022/03/13 09:35:38;;;;;;;15.65;10.77;;;;;;;-148.56;100.00;61375.16;5058196;28;20029;-27
2022/03/13 09:38:03;;;;;;;14.07;9.25;;;;;;;-148.56;100.00;61375.16;5050873;28;20102;-28
2022/03/13 09:40:29;;;;;;;10.68;8.45;;;;;;;-148.56;100.00;61375.16;5045886;28;20751;-30
2022/03/13 09:42:55;;;;;;;16.73;9.68;;;;;;;-148.56;100.00;61375.16;5045468;28;20082;-25
2022/03/13 09:45:20;;;;;;;11.55;8.75;;;;;;;-148.56;100.00;61375.16;5045891;28;20062;-29
2022/03/13 09:47:46;;;;;;;13.23;8.50;;;;;;;-148.56;100.00;61375.16;5012672;28;20028;-26
2022/03/13 09:50:12;;;;;;;11.02;8.50;;;;;;;-148.56;100.00;61375.16;5004885;28;20032;-25
2022/03/13 09:52:40;;;;;;;9.77;7.18;;;;;;;-148.56;100.00;61375.16;5005292;28;20028;-26
2022/03/13 09:55:06;;;;;;;9.38;6.80;;;;;;;-148.56;100.00;61375.16;5008603;28;20034;-26
2022/03/13 09:57:33;;;;;;;8.60;6.18;;;;;;;-148.56;100.00;61375.16;5007882;28;20994;-32
2022/03/13 09:59:59;;;;;;;15.35;6.50;;;;;;;-148.56;100.00;61375.16;5010070;28;20036;-29
2022/03/13 10:02:34;;;;;;;13.23;5.93;;;;;;;-148.56;100.00;61375.16;5010233;28;20078;-30
2022/03/13 10:05:05;;;;;;;17.33;6.85;;;;;;;-148.56;100.00;61375.16;5017624;28;20040;-30
2022/03/13 10:07:30;;;;;;;16.17;6.50;;;;;;;-148.56;100.00;61375.16;5018239;28;20032;-29
2022/03/13 10:09:57;;;;;;;17.35;7.57;;;;;;;-148.56;100.00;61375.16;5021645;28;20605;-26
2022/03/13 10:12:22;;;;;;;21.50;6.72;;;;;;;-148.56;100.00;61375.16;5020135;28;20036;-25
2022/03/13 10:15:05;;;;;;;25.63;8.05;;;;;;;-148.56;100.00;61375.16;5012451;28;20071;-26
2022/03/13 10:17:32;;;;;;;23.70;7.00;;;;;;;-148.56;100.00;61375.16;5021202;28;20040;-24
2022/03/13 10:20:30;;;;;;;18.70;7.35;;;;;;;-148.56;100.00;61375.16;5014409;28;21800;-26
2022/03/13 10:22:58;;;;;;;20.35;7.30;;;;;;;-148.56;100.00;61375.16;4980900;28;20337;-26
2022/03/13 10:25:34;;;;;;;23.25;6.85;;;;;;;-148.56;100.00;61375.16;5017466;28;20210;-32
2022/03/13 10:28:20;;;;;;;16.45;6.22;;;;;;;-148.56;100.00;61375.16;5018735;28;20031;-25
2022/03/13 10:31:05;;;;;;;16.63;6.68;;;;;;;-148.56;100.00;61375.16;5017091;28;20040;-25
2022/03/13 10:33:43;;;;;;;13.00;5.63;;;;;;;-148.56;100.00;61375.16;5030054;28;20028;-27
2022/03/13 10:36:08;;;;;;;15.75;6.10;;;;;;;-148.56;100.00;61375.16;5018733;28;20131;-25
2022/03/13 10:38:34;;;;;;;14.25;5.40;;;;;;;-148.56;100.00;61375.16;5016646;28;20033;-29
2022/03/13 10:41:00;;;;;;;17.70;5.82;;;;;;;-148.56;100.00;61375.16;5017437;28;20627;-25
2022/03/13 10:43:29;;;;;;;13.77;6.13;;;;;;;-148.56;100.00;61375.16;5015809;28;20692;-26
2022/03/13 10:45:56;;;;;;;16.42;5.70;;;;;;;-148.56;100.00;61375.16;5010975;28;20728;-25
2022/03/13 10:48:27;;;;;;;11.30;5.38;;;;;;;-148.56;100.00;61375.16;5055389;28;20032;-27
2022/03/13 10:50:53;;;;;;;11.77;4.97;;;;;;;-148.56;100.00;61375.16;5054648;28;20039;-30
2022/03/13 10:53:19;;;;;;;12.48;5.03;;;;;;;-148.56;100.00;61375.16;5056631;28;20028;-27
2022/03/13 10:56:02;;;;;;;14.88;5.60;;;;;;;-148.56;100.00;61375.16;5060358;28;20099;-28
2022/03/13 10:58:30;;;;;;;12.30;5.43;;;;;;;-148.56;100.00;61375.16;5055022;28;20035;-31
2022/03/13 11:01:12;;;;;;;12.18;5.32;;;;;;;-148.56;100.00;61375.16;5055002;28;20035;-32
2022/03/13 11:03:52;;;;;;;10.43;5.00;;;;;;;-148.56;100.00;61375.16;5051532;28;20506;-27